sensor_id;sensor_type;location;lat;lon;timestamp;P1;durP1;ratioP1;P2;durP2;ratioP2
77430;SDS011;66498;48.564;19.272;2023-04-21T00:02:12;18.20;;;8.43;;
77430;SDS011;66498;48.564;19.272;2023-04-21T00:04:40;16.02;;;8.70;;
77430;SDS011;66498;48.564;19.272;2023-04-21T00:07:05;15.90;;;8.68;;
77430;SDS011;66498;48.564;19.272;2023-04-21T00:09:32;15.63;;;9.13;;
77430;SDS011;66498;48.564;19.272;2023-04-21T00:11:57;16.30;;;8.70;;
77430;SDS011;66498;48.564;19.272;2023-04-21T00:14:23;12.90;;;8.55;;
77430;SDS011;66498;48.564;19.272;2023-04-21T00:16:48;12.05;;;8.60;;
77430;SDS011;66498;48.564;19.272;2023-04-21T00:19:17;17.30;;;8.95;;
77430;SDS011;66498;48.564;19.272;2023-04-21T00:21:43;15.20;;;8.70;;
77430;SDS011;66498;48.564;19.272;2023-04-21T00:24:09;12.75;;;8.65;;
77430;SDS011;66498;48.564;19.272;2023-04-21T00:26:35;12.95;;;9.30;;
77430;SDS011;66498;48.564;19.272;2023-04-21T00:29:00;12.70;;;8.90;;
77430;SDS011;66498;48.564;19.272;2023-04-21T00:31:25;13.52;;;8.30;;
77430;SDS011;66498;48.564;19.272;2023-04-21T00:33:51;15.15;;;8.35;;
77430;SDS011;66498;48.564;19.272;2023-04-21T00:36:18;15.23;;;8.90;;
77430;SDS011;66498;48.564;19.272;2023-04-21T00:38:43;16.85;;;10.27;;
77430;SDS011;66498;48.564;19.272;2023-04-21T00:41:09;14.25;;;8.70;;
77430;SDS011;66498;48.564;19.272;2023-04-21T00:43:34;16.20;;;9.45;;
77430;SDS011;66498;48.564;19.272;2023-04-21T00:46:00;15.45;;;9.10;;
77430;SDS011;66498;48.564;19.272;2023-04-21T00:48:26;16.58;;;9.50;;
77430;SDS011;66498;48.564;19.272;2023-04-21T00:50:51;15.68;;;9.20;;
77430;SDS011;66498;48.564;19.272;2023-04-21T00:53:17;14.35;;;9.48;;
77430;SDS011;66498;48.564;19.272;2023-04-21T00:55:44;18.17;;;9.23;;
77430;SDS011;66498;48.564;19.272;2023-04-21T00:58:10;15.02;;;8.55;;
77430;SDS011;66498;48.564;19.272;2023-04-21T01:00:36;18.65;;;9.48;;
77430;SDS011;66498;48.564;19.272;2023-04-21T01:03:02;14.25;;;9.27;;
77430;SDS011;66498;48.564;19.272;2023-04-21T01:05:29;13.48;;;9.02;;
77430;SDS011;66498;48.564;19.272;2023-04-21T01:07:56;15.30;;;8.60;;
77430;SDS011;66498;48.564;19.272;2023-04-21T01:10:21;12.60;;;9.45;;
77430;SDS011;66498;48.564;19.272;2023-04-21T01:12:47;13.38;;;9.18;;
77430;SDS011;66498;48.564;19.272;2023-04-21T01:15:14;15.00;;;10.07;;
77430;SDS011;66498;48.564;19.272;2023-04-21T01:17:41;15.98;;;10.27;;
77430;SDS011;66498;48.564;19.272;2023-04-21T01:20:11;15.52;;;9.20;;
77430;SDS011;66498;48.564;19.272;2023-04-21T01:22:39;15.60;;;9.50;;
77430;SDS011;66498;48.564;19.272;2023-04-21T01:25:09;15.48;;;8.30;;
77430;SDS011;66498;48.564;19.272;2023-04-21T01:27:35;16.90;;;9.02;;
77430;SDS011;66498;48.564;19.272;2023-04-21T01:30:01;14.32;;;9.07;;
77430;SDS011;66498;48.564;19.272;2023-04-21T01:32:28;14.50;;;9.40;;
77430;SDS011;66498;48.564;19.272;2023-04-21T01:34:55;15.15;;;9.18;;
77430;SDS011;66498;48.564;19.272;2023-04-21T01:37:23;14.10;;;8.75;;
77430;SDS011;66498;48.564;19.272;2023-04-21T01:39:52;16.45;;;8.10;;
77430;SDS011;66498;48.564;19.272;2023-04-21T01:42:20;12.85;;;7.78;;
77430;SDS011;66498;48.564;19.272;2023-04-21T01:44:48;12.57;;;7.47;;
77430;SDS011;66498;48.564;19.272;2023-04-21T01:47:15;12.20;;;7.38;;
77430;SDS011;66498;48.564;19.272;2023-04-21T01:49:41;10.85;;;7.13;;
77430;SDS011;66498;48.564;19.272;2023-04-21T01:52:06;11.93;;;8.50;;
77430;SDS011;66498;48.564;19.272;2023-04-21T01:54:32;15.55;;;8.75;;
77430;SDS011;66498;48.564;19.272;2023-04-21T01:56:59;14.73;;;8.60;;
77430;SDS011;66498;48.564;19.272;2023-04-21T01:59:24;13.20;;;9.73;;
77430;SDS011;66498;48.564;19.272;2023-04-21T02:01:50;15.82;;;9.80;;
77430;SDS011;66498;48.564;19.272;2023-04-21T02:04:15;14.98;;;9.73;;
77430;SDS011;66498;48.564;19.272;2023-04-21T02:06:41;15.30;;;9.98;;
77430;SDS011;66498;48.564;19.272;2023-04-21T02:09:06;16.05;;;9.63;;
77430;SDS011;66498;48.564;19.272;2023-04-21T02:11:32;17.05;;;9.57;;
77430;SDS011;66498;48.564;19.272;2023-04-21T02:13:57;14.10;;;9.25;;
77430;SDS011;66498;48.564;19.272;2023-04-21T02:16:22;13.95;;;9.63;;
77430;SDS011;66498;48.564;19.272;2023-04-21T02:18:54;17.38;;;10.18;;
77430;SDS011;66498;48.564;19.272;2023-04-21T02:21:30;19.25;;;9.82;;
77430;SDS011;66498;48.564;19.272;2023-04-21T02:23:56;16.15;;;9.63;;
77430;SDS011;66498;48.564;19.272;2023-04-21T02:26:21;16.80;;;10.10;;
77430;SDS011;66498;48.564;19.272;2023-04-21T02:28:47;15.48;;;8.98;;
77430;SDS011;66498;48.564;19.272;2023-04-21T02:31:14;14.60;;;9.05;;
77430;SDS011;66498;48.564;19.272;2023-04-21T02:33:40;12.48;;;8.55;;
77430;SDS011;66498;48.564;19.272;2023-04-21T02:36:06;13.23;;;7.93;;
77430;SDS011;66498;48.564;19.272;2023-04-21T02:38:31;12.13;;;8.00;;
77430;SDS011;66498;48.564;19.272;2023-04-21T02:40:57;16.27;;;9.50;;
77430;SDS011;66498;48.564;19.272;2023-04-21T02:43:22;15.52;;;9.32;;
77430;SDS011;66498;48.564;19.272;2023-04-21T02:45:48;13.73;;;9.00;;
77430;SDS011;66498;48.564;19.272;2023-04-21T02:48:14;14.45;;;9.10;;
77430;SDS011;66498;48.564;19.272;2023-04-21T02:50:39;17.83;;;9.13;;
77430;SDS011;66498;48.564;19.272;2023-04-21T02:53:07;16.20;;;9.13;;
77430;SDS011;66498;48.564;19.272;2023-04-21T02:55:32;14.90;;;9.18;;
77430;SDS011;66498;48.564;19.272;2023-04-21T02:57:57;17.48;;;9.35;;
77430;SDS011;66498;48.564;19.272;2023-04-21T03:00:23;13.45;;;8.07;;
77430;SDS011;66498;48.564;19.272;2023-04-21T03:02:48;12.95;;;8.18;;
77430;SDS011;66498;48.564;19.272;2023-04-21T03:05:14;15.77;;;8.77;;
77430;SDS011;66498;48.564;19.272;2023-04-21T03:07:40;15.60;;;9.15;;
77430;SDS011;66498;48.564;19.272;2023-04-21T03:10:07;14.55;;;8.70;;
77430;SDS011;66498;48.564;19.272;2023-04-21T03:12:32;18.27;;;10.18;;
77430;SDS011;66498;48.564;19.272;2023-04-21T03:14:58;13.95;;;9.32;;
77430;SDS011;66498;48.564;19.272;2023-04-21T03:17:24;16.70;;;8.65;;
77430;SDS011;66498;48.564;19.272;2023-04-21T03:19:50;18.02;;;9.57;;
77430;SDS011;66498;48.564;19.272;2023-04-21T03:22:16;12.85;;;8.10;;
77430;SDS011;66498;48.564;19.272;2023-04-21T03:24:41;15.70;;;8.85;;
77430;SDS011;66498;48.564;19.272;2023-04-21T03:27:07;14.02;;;8.38;;
77430;SDS011;66498;48.564;19.272;2023-04-21T03:29:34;10.70;;;7.95;;
77430;SDS011;66498;48.564;19.272;2023-04-21T03:32:00;11.95;;;8.80;;
77430;SDS011;66498;48.564;19.272;2023-04-21T03:34:25;15.48;;;9.20;;
77430;SDS011;66498;48.564;19.272;2023-04-21T03:36:51;22.42;;;12.63;;
77430;SDS011;66498;48.564;19.272;2023-04-21T03:39:16;16.23;;;9.65;;
77430;SDS011;66498;48.564;19.272;2023-04-21T03:41:42;20.55;;;9.77;;
77430;SDS011;66498;48.564;19.272;2023-04-21T03:44:07;14.77;;;9.23;;
77430;SDS011;66498;48.564;19.272;2023-04-21T03:46:32;14.88;;;9.57;;
77430;SDS011;66498;48.564;19.272;2023-04-21T03:48:58;31.75;;;9.40;;
77430;SDS011;66498;48.564;19.272;2023-04-21T03:51:23;15.65;;;8.88;;
77430;SDS011;66498;48.564;19.272;2023-04-21T03:53:49;15.45;;;9.23;;
77430;SDS011;66498;48.564;19.272;2023-04-21T03:56:14;15.30;;;9.20;;
77430;SDS011;66498;48.564;19.272;2023-04-21T03:58:40;16.35;;;9.52;;
77430;SDS011;66498;48.564;19.272;2023-04-21T04:01:06;14.18;;;9.52;;
77430;SDS011;66498;48.564;19.272;2023-04-21T04:03:31;16.60;;;10.13;;
77430;SDS011;66498;48.564;19.272;2023-04-21T04:05:57;14.48;;;8.82;;
77430;SDS011;66498;48.564;19.272;2023-04-21T04:08:23;22.83;;;10.15;;
77430;SDS011;66498;48.564;19.272;2023-04-21T04:10:49;17.90;;;10.43;;
77430;SDS011;66498;48.564;19.272;2023-04-21T04:13:14;17.75;;;9.68;;
77430;SDS011;66498;48.564;19.272;2023-04-21T04:15:41;12.63;;;9.30;;
77430;SDS011;66498;48.564;19.272;2023-04-21T04:18:07;16.98;;;9.82;;
77430;SDS011;66498;48.564;19.272;2023-04-21T04:20:33;18.77;;;10.48;;
77430;SDS011;66498;48.564;19.272;2023-04-21T04:22:58;18.65;;;9.82;;
77430;SDS011;66498;48.564;19.272;2023-04-21T04:25:24;19.98;;;9.48;;
77430;SDS011;66498;48.564;19.272;2023-04-21T04:27:52;16.63;;;9.73;;
77430;SDS011;66498;48.564;19.272;2023-04-21T04:30:19;15.30;;;9.65;;
77430;SDS011;66498;48.564;19.272;2023-04-21T04:32:45;18.48;;;10.63;;
77430;SDS011;66498;48.564;19.272;2023-04-21T04:35:11;15.43;;;10.23;;
77430;SDS011;66498;48.564;19.272;2023-04-21T04:37:37;14.80;;;9.77;;
77430;SDS011;66498;48.564;19.272;2023-04-21T04:40:03;22.35;;;10.20;;
77430;SDS011;66498;48.564;19.272;2023-04-21T04:42:34;17.02;;;10.38;;
77430;SDS011;66498;48.564;19.272;2023-04-21T04:45:00;19.15;;;10.02;;
77430;SDS011;66498;48.564;19.272;2023-04-21T04:47:27;17.13;;;10.90;;
77430;SDS011;66498;48.564;19.272;2023-04-21T04:49:54;21.75;;;10.52;;
77430;SDS011;66498;48.564;19.272;2023-04-21T04:52:19;20.50;;;10.25;;
77430;SDS011;66498;48.564;19.272;2023-04-21T04:54:45;16.90;;;9.68;;
77430;SDS011;66498;48.564;19.272;2023-04-21T04:57:10;18.50;;;10.57;;
77430;SDS011;66498;48.564;19.272;2023-04-21T04:59:36;19.00;;;9.85;;
77430;SDS011;66498;48.564;19.272;2023-04-21T05:02:01;20.08;;;10.18;;
77430;SDS011;66498;48.564;19.272;2023-04-21T05:04:28;15.00;;;10.13;;
77430;SDS011;66498;48.564;19.272;2023-04-21T05:06:53;16.98;;;10.38;;
77430;SDS011;66498;48.564;19.272;2023-04-21T05:09:20;17.30;;;10.18;;
77430;SDS011;66498;48.564;19.272;2023-04-21T05:11:47;16.50;;;10.27;;
77430;SDS011;66498;48.564;19.272;2023-04-21T05:14:12;19.48;;;13.18;;
77430;SDS011;66498;48.564;19.272;2023-04-21T05:16:38;18.73;;;12.23;;
77430;SDS011;66498;48.564;19.272;2023-04-21T05:19:03;13.75;;;9.43;;
77430;SDS011;66498;48.564;19.272;2023-04-21T05:21:29;20.88;;;12.18;;
77430;SDS011;66498;48.564;19.272;2023-04-21T05:23:56;24.38;;;13.25;;
77430;SDS011;66498;48.564;19.272;2023-04-21T05:26:22;18.70;;;11.98;;
77430;SDS011;66498;48.564;19.272;2023-04-21T05:28:53;19.13;;;10.98;;
77430;SDS011;66498;48.564;19.272;2023-04-21T05:31:19;19.52;;;11.55;;
77430;SDS011;66498;48.564;19.272;2023-04-21T05:33:45;19.40;;;10.50;;
77430;SDS011;66498;48.564;19.272;2023-04-21T05:36:10;19.63;;;10.43;;
77430;SDS011;66498;48.564;19.272;2023-04-21T05:38:36;14.60;;;9.65;;
77430;SDS011;66498;48.564;19.272;2023-04-21T05:41:02;19.20;;;10.60;;
77430;SDS011;66498;48.564;19.272;2023-04-21T05:43:28;14.77;;;10.38;;
77430;SDS011;66498;48.564;19.272;2023-04-21T05:45:54;16.40;;;9.70;;
77430;SDS011;66498;48.564;19.272;2023-04-21T05:48:19;18.02;;;10.52;;
77430;SDS011;66498;48.564;19.272;2023-04-21T05:50:45;17.17;;;10.05;;
77430;SDS011;66498;48.564;19.272;2023-04-21T05:53:10;22.45;;;11.15;;
77430;SDS011;66498;48.564;19.272;2023-04-21T05:55:36;20.10;;;11.45;;
77430;SDS011;66498;48.564;19.272;2023-04-21T05:58:01;19.88;;;11.88;;
77430;SDS011;66498;48.564;19.272;2023-04-21T06:00:28;19.95;;;13.27;;
77430;SDS011;66498;48.564;19.272;2023-04-21T06:02:54;23.35;;;12.48;;
77430;SDS011;66498;48.564;19.272;2023-04-21T06:05:19;15.57;;;10.52;;
77430;SDS011;66498;48.564;19.272;2023-04-21T06:07:45;18.50;;;14.00;;
77430;SDS011;66498;48.564;19.272;2023-04-21T06:10:11;15.77;;;11.15;;
77430;SDS011;66498;48.564;19.272;2023-04-21T06:12:38;17.63;;;12.73;;
77430;SDS011;66498;48.564;19.272;2023-04-21T06:15:03;14.65;;;10.82;;
77430;SDS011;66498;48.564;19.272;2023-04-21T06:17:29;19.15;;;11.00;;
77430;SDS011;66498;48.564;19.272;2023-04-21T06:19:54;21.23;;;11.15;;
77430;SDS011;66498;48.564;19.272;2023-04-21T06:22:23;18.13;;;11.27;;
77430;SDS011;66498;48.564;19.272;2023-04-21T06:24:49;19.10;;;10.23;;
77430;SDS011;66498;48.564;19.272;2023-04-21T06:27:15;15.10;;;10.93;;
77430;SDS011;66498;48.564;19.272;2023-04-21T06:29:41;16.95;;;11.75;;
77430;SDS011;66498;48.564;19.272;2023-04-21T06:32:07;17.65;;;11.38;;
77430;SDS011;66498;48.564;19.272;2023-04-21T06:34:36;21.63;;;12.40;;
77430;SDS011;66498;48.564;19.272;2023-04-21T06:37:02;18.55;;;12.18;;
77430;SDS011;66498;48.564;19.272;2023-04-21T06:39:28;27.58;;;13.18;;
77430;SDS011;66498;48.564;19.272;2023-04-21T06:41:54;22.13;;;13.55;;
77430;SDS011;66498;48.564;19.272;2023-04-21T06:44:19;19.20;;;12.65;;
77430;SDS011;66498;48.564;19.272;2023-04-21T06:46:45;21.33;;;12.10;;
77430;SDS011;66498;48.564;19.272;2023-04-21T06:49:12;18.52;;;13.27;;
77430;SDS011;66498;48.564;19.272;2023-04-21T06:51:37;19.67;;;12.90;;
77430;SDS011;66498;48.564;19.272;2023-04-21T06:54:03;17.30;;;12.15;;
77430;SDS011;66498;48.564;19.272;2023-04-21T06:56:29;22.17;;;12.48;;
77430;SDS011;66498;48.564;19.272;2023-04-21T06:58:56;22.83;;;12.50;;
77430;SDS011;66498;48.564;19.272;2023-04-21T07:01:24;18.17;;;12.75;;
77430;SDS011;66498;48.564;19.272;2023-04-21T07:03:51;18.27;;;12.32;;
77430;SDS011;66498;48.564;19.272;2023-04-21T07:06:18;23.70;;;12.95;;
77430;SDS011;66498;48.564;19.272;2023-04-21T07:08:43;20.35;;;13.30;;
77430;SDS011;66498;48.564;19.272;2023-04-21T07:11:09;18.02;;;12.77;;
77430;SDS011;66498;48.564;19.272;2023-04-21T07:13:34;18.10;;;11.88;;
77430;SDS011;66498;48.564;19.272;2023-04-21T07:16:00;19.30;;;12.45;;
77430;SDS011;66498;48.564;19.272;2023-04-21T07:18:25;22.25;;;12.27;;
77430;SDS011;66498;48.564;19.272;2023-04-21T07:20:51;22.05;;;12.82;;
77430;SDS011;66498;48.564;19.272;2023-04-21T07:23:16;18.05;;;12.13;;
77430;SDS011;66498;48.564;19.272;2023-04-21T07:25:42;17.27;;;12.10;;
77430;SDS011;66498;48.564;19.272;2023-04-21T07:28:08;17.20;;;11.60;;
77430;SDS011;66498;48.564;19.272;2023-04-21T07:30:35;16.83;;;11.85;;
77430;SDS011;66498;48.564;19.272;2023-04-21T07:33:01;17.55;;;11.68;;
77430;SDS011;66498;48.564;19.272;2023-04-21T07:35:26;20.88;;;11.15;;
77430;SDS011;66498;48.564;19.272;2023-04-21T07:37:52;14.90;;;10.90;;
77430;SDS011;66498;48.564;19.272;2023-04-21T07:40:17;13.75;;;9.50;;
77430;SDS011;66498;48.564;19.272;2023-04-21T07:42:43;18.98;;;9.38;;
77430;SDS011;66498;48.564;19.272;2023-04-21T07:45:09;13.93;;;9.65;;
77430;SDS011;66498;48.564;19.272;2023-04-21T07:47:35;20.88;;;10.45;;
77430;SDS011;66498;48.564;19.272;2023-04-21T07:50:00;14.88;;;8.35;;
77430;SDS011;66498;48.564;19.272;2023-04-21T07:52:26;12.00;;;7.70;;
77430;SDS011;66498;48.564;19.272;2023-04-21T07:54:51;17.67;;;7.32;;
77430;SDS011;66498;48.564;19.272;2023-04-21T07:57:17;14.07;;;6.85;;
77430;SDS011;66498;48.564;19.272;2023-04-21T07:59:42;10.82;;;7.15;;
77430;SDS011;66498;48.564;19.272;2023-04-21T08:02:08;11.30;;;7.03;;
77430;SDS011;66498;48.564;19.272;2023-04-21T08:04:33;14.18;;;7.00;;
77430;SDS011;66498;48.564;19.272;2023-04-21T08:06:59;14.35;;;7.32;;
77430;SDS011;66498;48.564;19.272;2023-04-21T08:09:25;15.98;;;6.07;;
77430;SDS011;66498;48.564;19.272;2023-04-21T08:11:51;14.25;;;7.00;;
77430;SDS011;66498;48.564;19.272;2023-04-21T08:14:16;13.23;;;6.05;;
77430;SDS011;66498;48.564;19.272;2023-04-21T08:16:42;15.18;;;5.80;;
77430;SDS011;66498;48.564;19.272;2023-04-21T08:19:08;12.73;;;6.55;;
77430;SDS011;66498;48.564;19.272;2023-04-21T08:21:34;15.27;;;5.95;;
77430;SDS011;66498;48.564;19.272;2023-04-21T08:24:00;10.45;;;5.38;;
77430;SDS011;66498;48.564;19.272;2023-04-21T08:26:26;12.57;;;6.70;;
77430;SDS011;66498;48.564;19.272;2023-04-21T08:28:54;9.45;;;6.07;;
77430;SDS011;66498;48.564;19.272;2023-04-21T08:31:20;11.05;;;5.70;;
77430;SDS011;66498;48.564;19.272;2023-04-21T08:33:45;12.77;;;6.15;;
77430;SDS011;66498;48.564;19.272;2023-04-21T08:36:11;12.32;;;6.40;;
77430;SDS011;66498;48.564;19.272;2023-04-21T08:38:36;12.40;;;7.05;;
77430;SDS011;66498;48.564;19.272;2023-04-21T08:41:03;10.27;;;6.05;;
77430;SDS011;66498;48.564;19.272;2023-04-21T08:43:29;11.77;;;6.20;;
77430;SDS011;66498;48.564;19.272;2023-04-21T08:45:55;12.23;;;7.07;;
77430;SDS011;66498;48.564;19.272;2023-04-21T08:48:21;8.68;;;6.05;;
77430;SDS011;66498;48.564;19.272;2023-04-21T08:50:48;9.88;;;6.53;;
77430;SDS011;66498;48.564;19.272;2023-04-21T08:53:15;11.00;;;6.40;;
77430;SDS011;66498;48.564;19.272;2023-04-21T08:55:41;7.68;;;5.97;;
77430;SDS011;66498;48.564;19.272;2023-04-21T08:58:07;10.25;;;6.60;;
77430;SDS011;66498;48.564;19.272;2023-04-21T09:00:37;10.93;;;6.43;;
77430;SDS011;66498;48.564;19.272;2023-04-21T09:03:05;13.77;;;6.85;;
77430;SDS011;66498;48.564;19.272;2023-04-21T09:05:32;10.48;;;6.05;;
77430;SDS011;66498;48.564;19.272;2023-04-21T09:08:06;14.43;;;6.97;;
77430;SDS011;66498;48.564;19.272;2023-04-21T09:10:48;14.88;;;6.47;;
77430;SDS011;66498;48.564;19.272;2023-04-21T09:13:15;10.57;;;6.35;;
77430;SDS011;66498;48.564;19.272;2023-04-21T09:15:43;10.05;;;6.43;;
77430;SDS011;66498;48.564;19.272;2023-04-21T09:18:17;13.02;;;6.90;;
77430;SDS011;66498;48.564;19.272;2023-04-21T09:20:45;12.52;;;6.72;;
77430;SDS011;66498;48.564;19.272;2023-04-21T09:23:12;10.25;;;6.20;;
77430;SDS011;66498;48.564;19.272;2023-04-21T09:25:38;10.13;;;7.10;;
77430;SDS011;66498;48.564;19.272;2023-04-21T09:28:12;10.70;;;6.30;;
77430;SDS011;66498;48.564;19.272;2023-04-21T09:30:39;12.50;;;6.72;;
77430;SDS011;66498;48.564;19.272;2023-04-21T09:33:06;10.10;;;6.75;;
77430;SDS011;66498;48.564;19.272;2023-04-21T09:35:36;11.05;;;7.00;;
77430;SDS011;66498;48.564;19.272;2023-04-21T09:38:07;10.57;;;6.72;;
77430;SDS011;66498;48.564;19.272;2023-04-21T09:40:34;12.95;;;6.43;;
77430;SDS011;66498;48.564;19.272;2023-04-21T09:43:00;11.40;;;7.03;;
77430;SDS011;66498;48.564;19.272;2023-04-21T09:45:26;9.15;;;6.25;;
77430;SDS011;66498;48.564;19.272;2023-04-21T09:47:54;7.93;;;6.57;;
77430;SDS011;66498;48.564;19.272;2023-04-21T09:50:22;12.77;;;6.95;;
77430;SDS011;66498;48.564;19.272;2023-04-21T09:52:49;10.30;;;6.60;;
77430;SDS011;66498;48.564;19.272;2023-04-21T09:55:17;9.15;;;6.35;;
77430;SDS011;66498;48.564;19.272;2023-04-21T09:57:45;8.90;;;6.30;;
77430;SDS011;66498;48.564;19.272;2023-04-21T10:00:12;9.45;;;7.05;;
77430;SDS011;66498;48.564;19.272;2023-04-21T10:02:42;9.93;;;6.20;;
77430;SDS011;66498;48.564;19.272;2023-04-21T10:05:11;8.77;;;6.32;;
77430;SDS011;66498;48.564;19.272;2023-04-21T10:07:37;9.07;;;6.95;;
77430;SDS011;66498;48.564;19.272;2023-04-21T10:10:03;10.02;;;6.80;;
77430;SDS011;66498;48.564;19.272;2023-04-21T10:12:33;11.57;;;6.95;;
77430;SDS011;66498;48.564;19.272;2023-04-21T10:15:04;10.15;;;6.75;;
77430;SDS011;66498;48.564;19.272;2023-04-21T10:17:31;9.63;;;6.90;;
77430;SDS011;66498;48.564;19.272;2023-04-21T10:20:00;9.88;;;6.72;;
77430;SDS011;66498;48.564;19.272;2023-04-21T10:22:32;9.10;;;6.55;;
77430;SDS011;66498;48.564;19.272;2023-04-21T10:24:58;8.63;;;6.50;;
77430;SDS011;66498;48.564;19.272;2023-04-21T10:27:41;9.98;;;6.60;;
77430;SDS011;66498;48.564;19.272;2023-04-21T10:30:19;10.45;;;6.43;;
77430;SDS011;66498;48.564;19.272;2023-04-21T10:32:46;11.25;;;6.63;;
77430;SDS011;66498;48.564;19.272;2023-04-21T10:35:20;10.93;;;6.82;;
77430;SDS011;66498;48.564;19.272;2023-04-21T10:37:47;9.65;;;6.75;;
77430;SDS011;66498;48.564;19.272;2023-04-21T10:49:03;12.55;;;6.43;;
77430;SDS011;66498;48.564;19.272;2023-04-21T10:51:32;11.43;;;7.10;;
77430;SDS011;66498;48.564;19.272;2023-04-21T10:54:20;9.20;;;6.10;;
77430;SDS011;66498;48.564;19.272;2023-04-21T10:56:46;9.77;;;6.15;;
77430;SDS011;66498;48.564;19.272;2023-04-21T10:59:15;10.02;;;6.45;;
77430;SDS011;66498;48.564;19.272;2023-04-21T11:01:42;12.20;;;6.28;;
77430;SDS011;66498;48.564;19.272;2023-04-21T11:04:15;10.98;;;6.53;;
77430;SDS011;66498;48.564;19.272;2023-04-21T11:06:41;9.02;;;5.38;;
77430;SDS011;66498;48.564;19.272;2023-04-21T11:09:07;8.45;;;6.20;;
77430;SDS011;66498;48.564;19.272;2023-04-21T11:11:33;11.27;;;6.10;;
77430;SDS011;66498;48.564;19.272;2023-04-21T11:14:00;7.03;;;5.72;;
77430;SDS011;66498;48.564;19.272;2023-04-21T11:16:28;9.63;;;6.30;;
77430;SDS011;66498;48.564;19.272;2023-04-21T11:18:55;13.00;;;6.47;;
77430;SDS011;66498;48.564;19.272;2023-04-21T11:21:21;14.57;;;6.22;;
77430;SDS011;66498;48.564;19.272;2023-04-21T11:23:58;7.60;;;5.80;;
77430;SDS011;66498;48.564;19.272;2023-04-21T11:26:34;8.77;;;6.03;;
77430;SDS011;66498;48.564;19.272;2023-04-21T11:29:03;9.30;;;6.25;;
77430;SDS011;66498;48.564;19.272;2023-04-21T11:31:32;10.68;;;6.40;;
77430;SDS011;66498;48.564;19.272;2023-04-21T11:33:59;13.70;;;6.18;;
77430;SDS011;66498;48.564;19.272;2023-04-21T11:36:25;11.25;;;6.30;;
77430;SDS011;66498;48.564;19.272;2023-04-21T11:38:51;9.23;;;6.18;;
77430;SDS011;66498;48.564;19.272;2023-04-21T11:41:21;11.32;;;6.25;;
77430;SDS011;66498;48.564;19.272;2023-04-21T11:43:47;11.18;;;6.22;;
77430;SDS011;66498;48.564;19.272;2023-04-21T11:46:17;11.13;;;6.30;;
77430;SDS011;66498;48.564;19.272;2023-04-21T11:48:43;10.32;;;5.90;;
77430;SDS011;66498;48.564;19.272;2023-04-21T11:51:14;18.95;;;6.70;;
77430;SDS011;66498;48.564;19.272;2023-04-21T11:53:45;9.25;;;5.88;;
77430;SDS011;66498;48.564;19.272;2023-04-21T11:56:15;10.85;;;5.57;;
77430;SDS011;66498;48.564;19.272;2023-04-21T11:58:43;9.50;;;5.53;;
77430;SDS011;66498;48.564;19.272;2023-04-21T12:01:10;9.60;;;5.60;;
77430;SDS011;66498;48.564;19.272;2023-04-21T12:03:36;11.32;;;5.88;;
77430;SDS011;66498;48.564;19.272;2023-04-21T12:06:02;9.55;;;5.95;;
77430;SDS011;66498;48.564;19.272;2023-04-21T12:08:28;9.80;;;5.20;;
77430;SDS011;66498;48.564;19.272;2023-04-21T12:10:55;9.13;;;5.65;;
77430;SDS011;66498;48.564;19.272;2023-04-21T12:13:23;11.00;;;5.45;;
77430;SDS011;66498;48.564;19.272;2023-04-21T12:15:51;8.70;;;5.18;;
77430;SDS011;66498;48.564;19.272;2023-04-21T12:18:17;9.85;;;5.38;;
77430;SDS011;66498;48.564;19.272;2023-04-21T12:20:50;8.43;;;5.60;;
77430;SDS011;66498;48.564;19.272;2023-04-21T12:23:17;9.20;;;5.47;;
77430;SDS011;66498;48.564;19.272;2023-04-21T12:25:43;11.82;;;5.65;;
77430;SDS011;66498;48.564;19.272;2023-04-21T12:28:11;7.82;;;5.57;;
77430;SDS011;66498;48.564;19.272;2023-04-21T12:30:39;8.82;;;5.70;;
77430;SDS011;66498;48.564;19.272;2023-04-21T12:33:05;8.57;;;5.32;;
77430;SDS011;66498;48.564;19.272;2023-04-21T12:35:31;7.45;;;5.30;;
77430;SDS011;66498;48.564;19.272;2023-04-21T12:37:57;9.32;;;5.18;;
77430;SDS011;66498;48.564;19.272;2023-04-21T12:40:24;8.45;;;5.18;;
77430;SDS011;66498;48.564;19.272;2023-04-21T12:42:52;10.55;;;5.53;;
77430;SDS011;66498;48.564;19.272;2023-04-21T12:45:18;9.00;;;5.32;;
77430;SDS011;66498;48.564;19.272;2023-04-21T12:47:43;6.18;;;4.90;;
77430;SDS011;66498;48.564;19.272;2023-04-21T12:50:09;6.97;;;5.18;;
77430;SDS011;66498;48.564;19.272;2023-04-21T12:52:35;7.18;;;5.57;;
77430;SDS011;66498;48.564;19.272;2023-04-21T12:55:01;9.55;;;5.40;;
77430;SDS011;66498;48.564;19.272;2023-04-21T12:57:27;9.10;;;5.85;;
77430;SDS011;66498;48.564;19.272;2023-04-21T12:59:52;8.20;;;5.60;;
77430;SDS011;66498;48.564;19.272;2023-04-21T13:02:18;11.05;;;5.10;;
77430;SDS011;66498;48.564;19.272;2023-04-21T13:04:44;8.05;;;5.43;;
77430;SDS011;66498;48.564;19.272;2023-04-21T13:07:09;9.32;;;6.13;;
77430;SDS011;66498;48.564;19.272;2023-04-21T13:09:35;7.50;;;5.55;;
77430;SDS011;66498;48.564;19.272;2023-04-21T13:12:03;7.93;;;5.20;;
77430;SDS011;66498;48.564;19.272;2023-04-21T13:14:29;8.50;;;5.45;;
77430;SDS011;66498;48.564;19.272;2023-04-21T13:16:55;9.50;;;5.20;;
77430;SDS011;66498;48.564;19.272;2023-04-21T13:19:20;8.13;;;5.35;;
77430;SDS011;66498;48.564;19.272;2023-04-21T13:21:46;9.82;;;5.28;;
77430;SDS011;66498;48.564;19.272;2023-04-21T13:24:12;10.88;;;5.60;;
77430;SDS011;66498;48.564;19.272;2023-04-21T13:26:38;7.30;;;5.68;;
77430;SDS011;66498;48.564;19.272;2023-04-21T13:29:03;10.20;;;5.70;;
77430;SDS011;66498;48.564;19.272;2023-04-21T13:31:29;6.97;;;4.90;;
77430;SDS011;66498;48.564;19.272;2023-04-21T13:33:56;9.65;;;5.30;;
77430;SDS011;66498;48.564;19.272;2023-04-21T13:36:21;7.20;;;5.18;;
77430;SDS011;66498;48.564;19.272;2023-04-21T13:38:47;8.20;;;5.40;;
77430;SDS011;66498;48.564;19.272;2023-04-21T13:41:14;7.20;;;5.13;;
77430;SDS011;66498;48.564;19.272;2023-04-21T13:43:40;8.93;;;5.45;;
77430;SDS011;66498;48.564;19.272;2023-04-21T13:46:06;10.43;;;5.05;;
77430;SDS011;66498;48.564;19.272;2023-04-21T13:48:31;10.52;;;5.57;;
77430;SDS011;66498;48.564;19.272;2023-04-21T13:50:57;6.93;;;5.05;;
77430;SDS011;66498;48.564;19.272;2023-04-21T13:53:22;10.18;;;5.10;;
77430;SDS011;66498;48.564;19.272;2023-04-21T13:55:48;7.38;;;4.70;;
77430;SDS011;66498;48.564;19.272;2023-04-21T13:58:14;7.15;;;4.80;;
77430;SDS011;66498;48.564;19.272;2023-04-21T14:00:40;9.38;;;4.80;;
77430;SDS011;66498;48.564;19.272;2023-04-21T14:03:06;7.07;;;5.10;;
77430;SDS011;66498;48.564;19.272;2023-04-21T14:05:31;7.90;;;5.38;;
77430;SDS011;66498;48.564;19.272;2023-04-21T14:07:58;7.70;;;4.90;;
77430;SDS011;66498;48.564;19.272;2023-04-21T14:10:28;8.77;;;4.78;;
77430;SDS011;66498;48.564;19.272;2023-04-21T14:12:54;6.97;;;4.82;;
77430;SDS011;66498;48.564;19.272;2023-04-21T14:15:19;8.90;;;5.22;;
77430;SDS011;66498;48.564;19.272;2023-04-21T14:17:45;7.82;;;4.88;;
77430;SDS011;66498;48.564;19.272;2023-04-21T14:20:10;8.10;;;5.15;;
77430;SDS011;66498;48.564;19.272;2023-04-21T14:22:36;6.70;;;4.95;;
77430;SDS011;66498;48.564;19.272;2023-04-21T14:25:01;8.45;;;4.75;;
77430;SDS011;66498;48.564;19.272;2023-04-21T14:27:27;8.18;;;4.72;;